Airfield :
LOGIN :

Register | Disclaimer

   EN    FR    IT 

 










Legend :    VFR   Marginal VFR   IFR   Intensive IFR   Very Intensive IFR
Visi :
Ceiling :
>= 8 km
>= 3000ft
5 to 8 km
1000 to 3000 ft
1500m to 5 km
500 to 1000 ft
800 to 1500m
200 to 500 ft
< 800m
< 200 ft
Symbols :   Thunderstorms  Fog  Heavy snow  Heavy precipitations  Wind > 20 kt
SIGMETs :     Misc.  Thunderstorms  Icing  Turbulence  Mountain Waves  Volcanic Ashes






- Airport Elevation : 65 ft
- IATA code : PIK


EGPK - Glasgow Prestwick

CURRENT METAR :
  • 011250Z 12005KT 9999 FEW013 BKN022 10/08 Q1026

EXPIRED METARs :
  • 011220Z 14004KT 9999 BKN018 09/08 Q1026
  • 011150Z 16003KT 130V190 9999 BKN021 09/08 Q1026
  • 011120Z 15008KT 9999 BKN022 09/07 Q1026
  • 011050Z 14009KT 9999 FEW011 BKN016 09/07 Q1026
  • 011020Z 15008KT 9999 FEW013 BKN023 08/07 Q1026

TAF TAF EGPK
Valid from the 01 at 12:00 until the 02 at 12:00 UTC


011101Z 0112/0212 14010KT 9999 SCT025
TEMPO 0112/0116 6000 -RADZ BKN010
PROB40
TEMPO 0112/0115 4000 DZRA BKN006
PROB30
TEMPO 0116/0122 6000
BECMG 0122/0201 7000
TEMPO 0122/0211 3000 BR
BECMG 0208/0211 08005KT



MET'MAP, your aeronautical weather chart ! - Copyright ORBIFLY December 2007 - Disclaimer

ORBIFLY MET'MAP TEAM :

Programming & Development : Alexandra Zaïnal
Original concept : Baudouin d'Aumeries
Technical & hardware support : Manuel Goepfert
Assistance : Marc-Olivier Méhu




SOURCES & CREDITS :

   NOAA